sensor_id;sensor_type;location;lat;lon;timestamp;P1;durP1;ratioP1;P2;durP2;ratioP2
68509;SDS011;55512;50.102;19.958;2023-05-16T00:00:19;8.60;;;3.40;;
68509;SDS011;55512;50.102;19.958;2023-05-16T00:02:45;7.90;;;2.70;;
68509;SDS011;55512;50.102;19.958;2023-05-16T00:05:12;7.80;;;3.40;;
68509;SDS011;55512;50.102;19.958;2023-05-16T00:07:41;6.90;;;3.10;;
68509;SDS011;55512;50.102;19.958;2023-05-16T00:10:08;6.60;;;2.80;;
68509;SDS011;55512;50.102;19.958;2023-05-16T00:12:34;6.90;;;2.90;;
68509;SDS011;55512;50.102;19.958;2023-05-16T00:15:10;7.00;;;3.50;;
68509;SDS011;55512;50.102;19.958;2023-05-16T00:17:39;7.50;;;3.30;;
68509;SDS011;55512;50.102;19.958;2023-05-16T00:20:06;7.10;;;3.20;;
68509;SDS011;55512;50.102;19.958;2023-05-16T00:22:32;7.10;;;3.80;;
68509;SDS011;55512;50.102;19.958;2023-05-16T00:24:58;7.10;;;3.20;;
68509;SDS011;55512;50.102;19.958;2023-05-16T00:27:24;8.10;;;3.40;;
68509;SDS011;55512;50.102;19.958;2023-05-16T00:29:49;6.80;;;3.20;;
68509;SDS011;55512;50.102;19.958;2023-05-16T00:32:15;7.00;;;3.30;;
68509;SDS011;55512;50.102;19.958;2023-05-16T00:34:42;7.70;;;3.50;;
68509;SDS011;55512;50.102;19.958;2023-05-16T00:37:07;6.10;;;3.50;;
68509;SDS011;55512;50.102;19.958;2023-05-16T00:39:33;7.20;;;3.40;;
68509;SDS011;55512;50.102;19.958;2023-05-16T00:41:58;8.70;;;3.40;;
68509;SDS011;55512;50.102;19.958;2023-05-16T00:44:24;7.50;;;3.70;;
68509;SDS011;55512;50.102;19.958;2023-05-16T00:46:50;7.30;;;3.50;;
68509;SDS011;55512;50.102;19.958;2023-05-16T00:49:16;6.90;;;3.80;;
68509;SDS011;55512;50.102;19.958;2023-05-16T00:51:41;8.80;;;3.60;;
68509;SDS011;55512;50.102;19.958;2023-05-16T00:54:07;7.30;;;3.40;;
68509;SDS011;55512;50.102;19.958;2023-05-16T00:56:33;7.00;;;3.50;;
68509;SDS011;55512;50.102;19.958;2023-05-16T00:58:58;6.30;;;3.30;;
68509;SDS011;55512;50.102;19.958;2023-05-16T01:01:28;7.70;;;3.90;;
68509;SDS011;55512;50.102;19.958;2023-05-16T01:03:53;7.70;;;3.90;;
68509;SDS011;55512;50.102;19.958;2023-05-16T01:06:19;6.60;;;3.10;;
68509;SDS011;55512;50.102;19.958;2023-05-16T01:08:45;7.80;;;3.60;;
68509;SDS011;55512;50.102;19.958;2023-05-16T01:11:33;7.30;;;3.50;;
68509;SDS011;55512;50.102;19.958;2023-05-16T01:16:45;6.10;;;3.30;;
68509;SDS011;55512;50.102;19.958;2023-05-16T01:19:50;8.30;;;3.70;;
68509;SDS011;55512;50.102;19.958;2023-05-16T01:22:34;7.20;;;3.20;;
68509;SDS011;55512;50.102;19.958;2023-05-16T01:28:04;7.30;;;3.50;;
68509;SDS011;55512;50.102;19.958;2023-05-16T01:30:39;6.90;;;3.60;;
68509;SDS011;55512;50.102;19.958;2023-05-16T01:33:06;7.00;;;3.70;;
68509;SDS011;55512;50.102;19.958;2023-05-16T01:35:32;7.80;;;3.70;;
68509;SDS011;55512;50.102;19.958;2023-05-16T01:38:11;7.00;;;3.50;;
68509;SDS011;55512;50.102;19.958;2023-05-16T01:41:03;7.90;;;3.70;;
68509;SDS011;55512;50.102;19.958;2023-05-16T01:43:45;7.50;;;3.20;;
68509;SDS011;55512;50.102;19.958;2023-05-16T01:46:20;8.20;;;3.80;;
68509;SDS011;55512;50.102;19.958;2023-05-16T01:48:53;6.30;;;3.40;;
68509;SDS011;55512;50.102;19.958;2023-05-16T01:51:28;8.80;;;3.80;;
68509;SDS011;55512;50.102;19.958;2023-05-16T01:54:04;8.50;;;3.50;;
68509;SDS011;55512;50.102;19.958;2023-05-16T01:56:33;8.00;;;3.50;;
68509;SDS011;55512;50.102;19.958;2023-05-16T01:59:01;6.40;;;3.30;;
68509;SDS011;55512;50.102;19.958;2023-05-16T02:01:29;7.30;;;3.30;;
68509;SDS011;55512;50.102;19.958;2023-05-16T02:03:56;6.50;;;3.50;;
68509;SDS011;55512;50.102;19.958;2023-05-16T02:06:30;9.40;;;3.50;;
68509;SDS011;55512;50.102;19.958;2023-05-16T02:08:56;7.30;;;3.30;;
68509;SDS011;55512;50.102;19.958;2023-05-16T02:11:21;7.00;;;3.10;;
68509;SDS011;55512;50.102;19.958;2023-05-16T02:13:47;6.30;;;2.90;;
68509;SDS011;55512;50.102;19.958;2023-05-16T02:16:12;5.80;;;2.60;;
68509;SDS011;55512;50.102;19.958;2023-05-16T02:18:38;6.10;;;2.90;;
68509;SDS011;55512;50.102;19.958;2023-05-16T02:21:04;6.70;;;3.10;;
68509;SDS011;55512;50.102;19.958;2023-05-16T02:23:29;6.90;;;3.10;;
68509;SDS011;55512;50.102;19.958;2023-05-16T02:25:55;8.10;;;3.30;;
68509;SDS011;55512;50.102;19.958;2023-05-16T02:28:20;5.80;;;2.60;;
68509;SDS011;55512;50.102;19.958;2023-05-16T02:30:55;5.70;;;2.50;;
68509;SDS011;55512;50.102;19.958;2023-05-16T02:33:25;6.20;;;2.90;;
68509;SDS011;55512;50.102;19.958;2023-05-16T02:35:52;5.50;;;2.50;;
68509;SDS011;55512;50.102;19.958;2023-05-16T02:38:17;6.10;;;2.70;;
68509;SDS011;55512;50.102;19.958;2023-05-16T02:40:48;5.60;;;2.40;;
68509;SDS011;55512;50.102;19.958;2023-05-16T02:43:14;6.20;;;2.50;;
68509;SDS011;55512;50.102;19.958;2023-05-16T02:45:40;5.20;;;2.50;;
68509;SDS011;55512;50.102;19.958;2023-05-16T02:48:05;5.90;;;3.00;;
68509;SDS011;55512;50.102;19.958;2023-05-16T02:50:34;6.70;;;2.90;;
68509;SDS011;55512;50.102;19.958;2023-05-16T02:53:01;7.00;;;2.90;;
68509;SDS011;55512;50.102;19.958;2023-05-16T02:55:28;5.80;;;2.80;;
68509;SDS011;55512;50.102;19.958;2023-05-16T02:57:53;6.90;;;2.90;;
68509;SDS011;55512;50.102;19.958;2023-05-16T03:00:19;6.90;;;2.90;;
68509;SDS011;55512;50.102;19.958;2023-05-16T03:02:45;6.40;;;2.80;;
68509;SDS011;55512;50.102;19.958;2023-05-16T03:05:11;5.30;;;2.80;;
68509;SDS011;55512;50.102;19.958;2023-05-16T03:07:38;6.30;;;2.90;;
68509;SDS011;55512;50.102;19.958;2023-05-16T03:10:04;6.60;;;3.30;;
68509;SDS011;55512;50.102;19.958;2023-05-16T03:12:30;6.30;;;2.80;;
68509;SDS011;55512;50.102;19.958;2023-05-16T03:14:55;7.50;;;3.10;;
68509;SDS011;55512;50.102;19.958;2023-05-16T03:17:21;7.60;;;3.20;;
68509;SDS011;55512;50.102;19.958;2023-05-16T03:19:47;5.80;;;2.70;;
68509;SDS011;55512;50.102;19.958;2023-05-16T03:22:13;6.80;;;2.80;;
68509;SDS011;55512;50.102;19.958;2023-05-16T03:24:39;7.10;;;3.50;;
68509;SDS011;55512;50.102;19.958;2023-05-16T03:27:04;7.20;;;3.00;;
68509;SDS011;55512;50.102;19.958;2023-05-16T03:29:30;6.70;;;2.70;;
68509;SDS011;55512;50.102;19.958;2023-05-16T03:31:56;7.40;;;3.10;;
68509;SDS011;55512;50.102;19.958;2023-05-16T03:34:21;7.60;;;3.60;;
68509;SDS011;55512;50.102;19.958;2023-05-16T03:36:51;7.70;;;2.70;;
68509;SDS011;55512;50.102;19.958;2023-05-16T03:39:16;5.70;;;2.80;;
68509;SDS011;55512;50.102;19.958;2023-05-16T03:41:42;6.20;;;3.00;;
68509;SDS011;55512;50.102;19.958;2023-05-16T03:44:08;6.30;;;3.20;;
68509;SDS011;55512;50.102;19.958;2023-05-16T03:46:34;5.90;;;3.00;;
68509;SDS011;55512;50.102;19.958;2023-05-16T03:49:00;7.40;;;3.20;;
68509;SDS011;55512;50.102;19.958;2023-05-16T03:51:26;6.60;;;3.20;;
68509;SDS011;55512;50.102;19.958;2023-05-16T03:53:53;6.70;;;3.10;;
68509;SDS011;55512;50.102;19.958;2023-05-16T03:56:18;7.50;;;2.70;;
68509;SDS011;55512;50.102;19.958;2023-05-16T03:58:46;6.50;;;2.70;;
68509;SDS011;55512;50.102;19.958;2023-05-16T04:01:12;8.40;;;3.90;;
68509;SDS011;55512;50.102;19.958;2023-05-16T04:03:38;8.10;;;3.10;;
68509;SDS011;55512;50.102;19.958;2023-05-16T04:06:05;7.90;;;3.40;;
68509;SDS011;55512;50.102;19.958;2023-05-16T04:08:31;8.30;;;3.30;;
68509;SDS011;55512;50.102;19.958;2023-05-16T04:10:57;8.90;;;3.30;;
68509;SDS011;55512;50.102;19.958;2023-05-16T04:13:22;7.80;;;3.30;;
68509;SDS011;55512;50.102;19.958;2023-05-16T04:15:48;6.90;;;3.30;;
68509;SDS011;55512;50.102;19.958;2023-05-16T04:18:13;6.70;;;2.90;;
68509;SDS011;55512;50.102;19.958;2023-05-16T04:20:41;5.60;;;2.60;;
68509;SDS011;55512;50.102;19.958;2023-05-16T04:23:07;5.00;;;2.20;;
68509;SDS011;55512;50.102;19.958;2023-05-16T04:25:35;6.50;;;2.70;;
68509;SDS011;55512;50.102;19.958;2023-05-16T04:28:00;5.30;;;2.40;;
68509;SDS011;55512;50.102;19.958;2023-05-16T04:30:26;6.50;;;2.80;;
68509;SDS011;55512;50.102;19.958;2023-05-16T04:32:51;5.50;;;2.60;;
68509;SDS011;55512;50.102;19.958;2023-05-16T04:35:17;5.90;;;2.80;;
68509;SDS011;55512;50.102;19.958;2023-05-16T04:37:43;8.50;;;3.20;;
68509;SDS011;55512;50.102;19.958;2023-05-16T04:40:08;6.50;;;2.90;;
68509;SDS011;55512;50.102;19.958;2023-05-16T04:42:34;6.40;;;2.70;;
68509;SDS011;55512;50.102;19.958;2023-05-16T04:45:00;7.20;;;3.40;;
68509;SDS011;55512;50.102;19.958;2023-05-16T04:47:27;5.50;;;2.40;;
68509;SDS011;55512;50.102;19.958;2023-05-16T04:49:53;4.70;;;2.30;;
68509;SDS011;55512;50.102;19.958;2023-05-16T04:52:19;5.30;;;2.30;;
68509;SDS011;55512;50.102;19.958;2023-05-16T04:54:45;5.50;;;2.60;;
68509;SDS011;55512;50.102;19.958;2023-05-16T04:57:10;6.40;;;2.60;;
68509;SDS011;55512;50.102;19.958;2023-05-16T04:59:36;5.50;;;2.60;;
68509;SDS011;55512;50.102;19.958;2023-05-16T05:02:02;8.00;;;2.80;;
68509;SDS011;55512;50.102;19.958;2023-05-16T05:04:28;7.20;;;2.30;;
68509;SDS011;55512;50.102;19.958;2023-05-16T05:06:54;6.10;;;2.70;;
68509;SDS011;55512;50.102;19.958;2023-05-16T05:09:19;9.40;;;4.30;;
68509;SDS011;55512;50.102;19.958;2023-05-16T05:11:45;9.60;;;3.40;;
68509;SDS011;55512;50.102;19.958;2023-05-16T05:14:11;7.10;;;3.60;;
68509;SDS011;55512;50.102;19.958;2023-05-16T05:16:36;7.50;;;3.30;;
68509;SDS011;55512;50.102;19.958;2023-05-16T05:19:02;7.80;;;3.40;;
68509;SDS011;55512;50.102;19.958;2023-05-16T05:21:27;12.00;;;6.60;;
68509;SDS011;55512;50.102;19.958;2023-05-16T05:23:55;10.50;;;5.20;;
68509;SDS011;55512;50.102;19.958;2023-05-16T05:26:20;9.10;;;4.60;;
68509;SDS011;55512;50.102;19.958;2023-05-16T05:28:47;8.60;;;4.20;;
68509;SDS011;55512;50.102;19.958;2023-05-16T05:31:13;8.00;;;3.50;;
68509;SDS011;55512;50.102;19.958;2023-05-16T05:33:38;6.80;;;3.60;;
68509;SDS011;55512;50.102;19.958;2023-05-16T05:36:05;9.30;;;4.40;;
68509;SDS011;55512;50.102;19.958;2023-05-16T05:38:30;7.90;;;3.90;;
68509;SDS011;55512;50.102;19.958;2023-05-16T05:40:56;7.80;;;4.20;;
68509;SDS011;55512;50.102;19.958;2023-05-16T05:43:21;8.90;;;4.10;;
68509;SDS011;55512;50.102;19.958;2023-05-16T05:45:48;10.70;;;4.50;;
68509;SDS011;55512;50.102;19.958;2023-05-16T05:48:13;8.60;;;4.10;;
68509;SDS011;55512;50.102;19.958;2023-05-16T05:50:39;8.60;;;4.10;;
68509;SDS011;55512;50.102;19.958;2023-05-16T05:53:05;9.80;;;4.60;;
68509;SDS011;55512;50.102;19.958;2023-05-16T05:55:31;8.20;;;4.10;;
68509;SDS011;55512;50.102;19.958;2023-05-16T05:57:57;6.40;;;3.90;;
68509;SDS011;55512;50.102;19.958;2023-05-16T06:00:22;8.90;;;3.90;;
68509;SDS011;55512;50.102;19.958;2023-05-16T06:02:49;7.00;;;4.20;;
68509;SDS011;55512;50.102;19.958;2023-05-16T06:05:15;6.90;;;3.60;;
68509;SDS011;55512;50.102;19.958;2023-05-16T06:07:40;7.80;;;4.00;;
68509;SDS011;55512;50.102;19.958;2023-05-16T06:10:06;9.60;;;4.20;;
68509;SDS011;55512;50.102;19.958;2023-05-16T06:12:32;7.20;;;3.50;;
68509;SDS011;55512;50.102;19.958;2023-05-16T06:14:58;7.00;;;3.80;;
68509;SDS011;55512;50.102;19.958;2023-05-16T06:17:24;8.00;;;3.90;;
68509;SDS011;55512;50.102;19.958;2023-05-16T06:19:49;7.10;;;3.20;;
68509;SDS011;55512;50.102;19.958;2023-05-16T06:22:15;6.00;;;3.30;;
68509;SDS011;55512;50.102;19.958;2023-05-16T06:24:41;9.20;;;3.50;;
68509;SDS011;55512;50.102;19.958;2023-05-16T06:27:07;8.50;;;3.70;;
68509;SDS011;55512;50.102;19.958;2023-05-16T06:29:33;7.20;;;3.70;;
68509;SDS011;55512;50.102;19.958;2023-05-16T06:31:58;9.20;;;4.10;;
68509;SDS011;55512;50.102;19.958;2023-05-16T06:34:24;7.10;;;3.60;;
68509;SDS011;55512;50.102;19.958;2023-05-16T06:36:53;8.40;;;3.80;;
68509;SDS011;55512;50.102;19.958;2023-05-16T06:39:19;9.20;;;4.10;;
68509;SDS011;55512;50.102;19.958;2023-05-16T06:41:45;6.70;;;3.60;;
68509;SDS011;55512;50.102;19.958;2023-05-16T06:44:11;6.50;;;3.70;;
68509;SDS011;55512;50.102;19.958;2023-05-16T06:46:36;8.00;;;3.80;;
68509;SDS011;55512;50.102;19.958;2023-05-16T06:49:02;6.70;;;3.90;;
68509;SDS011;55512;50.102;19.958;2023-05-16T06:51:29;8.00;;;4.30;;
68509;SDS011;55512;50.102;19.958;2023-05-16T06:53:55;6.60;;;3.60;;
68509;SDS011;55512;50.102;19.958;2023-05-16T06:56:21;7.90;;;4.50;;
68509;SDS011;55512;50.102;19.958;2023-05-16T06:58:48;7.80;;;4.30;;
68509;SDS011;55512;50.102;19.958;2023-05-16T07:01:14;6.70;;;4.00;;
68509;SDS011;55512;50.102;19.958;2023-05-16T07:03:40;8.00;;;4.50;;
68509;SDS011;55512;50.102;19.958;2023-05-16T07:06:06;8.00;;;4.20;;
68509;SDS011;55512;50.102;19.958;2023-05-16T07:08:32;7.90;;;4.50;;
68509;SDS011;55512;50.102;19.958;2023-05-16T07:11:00;7.20;;;4.00;;
68509;SDS011;55512;50.102;19.958;2023-05-16T07:13:26;8.40;;;4.60;;
68509;SDS011;55512;50.102;19.958;2023-05-16T07:15:51;7.80;;;4.00;;
68509;SDS011;55512;50.102;19.958;2023-05-16T07:18:17;6.90;;;4.10;;
68509;SDS011;55512;50.102;19.958;2023-05-16T07:20:43;7.80;;;4.40;;
68509;SDS011;55512;50.102;19.958;2023-05-16T07:23:08;10.40;;;6.50;;
68509;SDS011;55512;50.102;19.958;2023-05-16T07:25:34;10.60;;;5.90;;
68509;SDS011;55512;50.102;19.958;2023-05-16T07:28:01;9.60;;;5.50;;
68509;SDS011;55512;50.102;19.958;2023-05-16T07:30:26;7.90;;;4.80;;
68509;SDS011;55512;50.102;19.958;2023-05-16T07:32:52;8.60;;;5.10;;
68509;SDS011;55512;50.102;19.958;2023-05-16T07:35:18;8.30;;;4.80;;
68509;SDS011;55512;50.102;19.958;2023-05-16T07:37:44;7.00;;;4.50;;
68509;SDS011;55512;50.102;19.958;2023-05-16T07:40:10;7.90;;;4.60;;
68509;SDS011;55512;50.102;19.958;2023-05-16T07:42:36;8.80;;;4.90;;
68509;SDS011;55512;50.102;19.958;2023-05-16T07:45:02;7.50;;;5.20;;
68509;SDS011;55512;50.102;19.958;2023-05-16T07:47:29;7.90;;;4.70;;
68509;SDS011;55512;50.102;19.958;2023-05-16T07:49:55;7.40;;;4.30;;
68509;SDS011;55512;50.102;19.958;2023-05-16T07:52:20;9.80;;;5.20;;
68509;SDS011;55512;50.102;19.958;2023-05-16T07:54:46;10.10;;;5.10;;
68509;SDS011;55512;50.102;19.958;2023-05-16T07:57:15;9.00;;;4.70;;
68509;SDS011;55512;50.102;19.958;2023-05-16T07:59:41;8.50;;;4.70;;
68509;SDS011;55512;50.102;19.958;2023-05-16T08:02:09;7.20;;;4.60;;
68509;SDS011;55512;50.102;19.958;2023-05-16T08:04:35;8.40;;;4.60;;
68509;SDS011;55512;50.102;19.958;2023-05-16T08:07:02;8.10;;;4.70;;
68509;SDS011;55512;50.102;19.958;2023-05-16T08:09:27;14.70;;;5.70;;
68509;SDS011;55512;50.102;19.958;2023-05-16T08:11:53;14.20;;;6.20;;
68509;SDS011;55512;50.102;19.958;2023-05-16T08:14:18;9.00;;;4.90;;
68509;SDS011;55512;50.102;19.958;2023-05-16T08:16:44;11.30;;;5.40;;
68509;SDS011;55512;50.102;19.958;2023-05-16T08:19:10;8.50;;;5.10;;
68509;SDS011;55512;50.102;19.958;2023-05-16T08:21:35;7.90;;;4.10;;
68509;SDS011;55512;50.102;19.958;2023-05-16T08:24:01;7.20;;;4.90;;
68509;SDS011;55512;50.102;19.958;2023-05-16T08:26:26;8.80;;;5.10;;
68509;SDS011;55512;50.102;19.958;2023-05-16T08:28:52;8.30;;;5.30;;
68509;SDS011;55512;50.102;19.958;2023-05-16T08:31:17;9.30;;;5.00;;
68509;SDS011;55512;50.102;19.958;2023-05-16T08:33:43;7.70;;;4.40;;
68509;SDS011;55512;50.102;19.958;2023-05-16T08:36:09;7.80;;;4.80;;
68509;SDS011;55512;50.102;19.958;2023-05-16T08:38:35;8.60;;;5.90;;
68509;SDS011;55512;50.102;19.958;2023-05-16T08:41:00;10.80;;;5.90;;
68509;SDS011;55512;50.102;19.958;2023-05-16T08:43:26;8.20;;;5.10;;
68509;SDS011;55512;50.102;19.958;2023-05-16T08:45:52;10.00;;;5.80;;
68509;SDS011;55512;50.102;19.958;2023-05-16T08:48:21;7.90;;;5.60;;
68509;SDS011;55512;50.102;19.958;2023-05-16T08:50:48;8.20;;;5.10;;
68509;SDS011;55512;50.102;19.958;2023-05-16T08:53:17;8.20;;;5.20;;
68509;SDS011;55512;50.102;19.958;2023-05-16T08:55:46;9.60;;;6.00;;
68509;SDS011;55512;50.102;19.958;2023-05-16T08:58:13;7.80;;;5.70;;
68509;SDS011;55512;50.102;19.958;2023-05-16T09:00:40;7.30;;;4.70;;
68509;SDS011;55512;50.102;19.958;2023-05-16T09:03:06;9.80;;;5.90;;
68509;SDS011;55512;50.102;19.958;2023-05-16T09:05:32;9.70;;;5.70;;
68509;SDS011;55512;50.102;19.958;2023-05-16T09:07:58;9.00;;;5.70;;
68509;SDS011;55512;50.102;19.958;2023-05-16T09:10:24;7.40;;;5.20;;
68509;SDS011;55512;50.102;19.958;2023-05-16T09:12:49;11.50;;;5.60;;
68509;SDS011;55512;50.102;19.958;2023-05-16T09:15:17;8.00;;;5.00;;
68509;SDS011;55512;50.102;19.958;2023-05-16T09:17:45;8.10;;;5.40;;
68509;SDS011;55512;50.102;19.958;2023-05-16T09:20:14;7.30;;;4.80;;
68509;SDS011;55512;50.102;19.958;2023-05-16T09:22:53;9.90;;;5.50;;
68509;SDS011;55512;50.102;19.958;2023-05-16T09:25:21;15.70;;;6.40;;
68509;SDS011;55512;50.102;19.958;2023-05-16T09:27:53;9.40;;;5.70;;
68509;SDS011;55512;50.102;19.958;2023-05-16T09:30:27;9.00;;;5.20;;
68509;SDS011;55512;50.102;19.958;2023-05-16T09:32:54;10.00;;;5.20;;
68509;SDS011;55512;50.102;19.958;2023-05-16T09:35:20;7.80;;;5.50;;
68509;SDS011;55512;50.102;19.958;2023-05-16T09:37:47;8.60;;;5.30;;
68509;SDS011;55512;50.102;19.958;2023-05-16T09:40:14;7.60;;;5.20;;
68509;SDS011;55512;50.102;19.958;2023-05-16T09:42:43;7.90;;;5.20;;
68509;SDS011;55512;50.102;19.958;2023-05-16T09:45:12;8.70;;;5.00;;
68509;SDS011;55512;50.102;19.958;2023-05-16T09:47:39;25.10;;;7.10;;
68509;SDS011;55512;50.102;19.958;2023-05-16T09:50:13;11.60;;;5.40;;
68509;SDS011;55512;50.102;19.958;2023-05-16T09:52:42;8.30;;;5.30;;
68509;SDS011;55512;50.102;19.958;2023-05-16T09:55:09;9.50;;;5.70;;
68509;SDS011;55512;50.102;19.958;2023-05-16T09:57:38;8.20;;;4.70;;
68509;SDS011;55512;50.102;19.958;2023-05-16T10:00:10;9.00;;;4.70;;
68509;SDS011;55512;50.102;19.958;2023-05-16T10:02:37;7.80;;;5.10;;
68509;SDS011;55512;50.102;19.958;2023-05-16T10:05:06;8.50;;;5.10;;
68509;SDS011;55512;50.102;19.958;2023-05-16T10:07:32;10.00;;;5.50;;
68509;SDS011;55512;50.102;19.958;2023-05-16T10:10:05;9.30;;;5.30;;
68509;SDS011;55512;50.102;19.958;2023-05-16T10:12:32;8.90;;;5.10;;
68509;SDS011;55512;50.102;19.958;2023-05-16T10:15:00;7.50;;;4.60;;
68509;SDS011;55512;50.102;19.958;2023-05-16T10:17:30;8.00;;;4.80;;
68509;SDS011;55512;50.102;19.958;2023-05-16T10:20:01;7.20;;;5.00;;
68509;SDS011;55512;50.102;19.958;2023-05-16T10:22:33;7.00;;;4.70;;
68509;SDS011;55512;50.102;19.958;2023-05-16T10:27:47;8.80;;;5.00;;
68509;SDS011;55512;50.102;19.958;2023-05-16T10:30:13;9.30;;;4.90;;
68509;SDS011;55512;50.102;19.958;2023-05-16T10:32:40;11.50;;;5.60;;
68509;SDS011;55512;50.102;19.958;2023-05-16T10:35:07;8.60;;;4.70;;
68509;SDS011;55512;50.102;19.958;2023-05-16T10:37:33;8.00;;;5.40;;
68509;SDS011;55512;50.102;19.958;2023-05-16T10:40:01;8.40;;;5.20;;
68509;SDS011;55512;50.102;19.958;2023-05-16T10:42:33;8.30;;;5.90;;
68509;SDS011;55512;50.102;19.958;2023-05-16T10:45:29;8.70;;;5.30;;
68509;SDS011;55512;50.102;19.958;2023-05-16T10:48:02;8.00;;;5.30;;
68509;SDS011;55512;50.102;19.958;2023-05-16T10:50:40;11.20;;;5.70;;
68509;SDS011;55512;50.102;19.958;2023-05-16T10:55:48;12.40;;;5.40;;
68509;SDS011;55512;50.102;19.958;2023-05-16T10:58:23;8.60;;;5.70;;
68509;SDS011;55512;50.102;19.958;2023-05-16T11:01:14;9.50;;;5.20;;
68509;SDS011;55512;50.102;19.958;2023-05-16T11:11:54;9.00;;;6.00;;
68509;SDS011;55512;50.102;19.958;2023-05-16T11:19:47;8.80;;;5.00;;
68509;SDS011;55512;50.102;19.958;2023-05-16T11:24:50;10.90;;;5.40;;
68509;SDS011;55512;50.102;19.958;2023-05-16T11:27:30;9.50;;;4.80;;
68509;SDS011;55512;50.102;19.958;2023-05-16T11:30:00;11.10;;;4.70;;
68509;SDS011;55512;50.102;19.958;2023-05-16T11:32:37;17.10;;;5.80;;
68509;SDS011;55512;50.102;19.958;2023-05-16T11:35:05;9.10;;;5.40;;
68509;SDS011;55512;50.102;19.958;2023-05-16T11:37:33;12.20;;;5.30;;
68509;SDS011;55512;50.102;19.958;2023-05-16T11:40:04;10.80;;;4.50;;
68509;SDS011;55512;50.102;19.958;2023-05-16T11:42:43;9.80;;;5.10;;
68509;SDS011;55512;50.102;19.958;2023-05-16T11:45:18;10.00;;;4.60;;
68509;SDS011;55512;50.102;19.958;2023-05-16T11:47:47;14.00;;;5.50;;
68509;SDS011;55512;50.102;19.958;2023-05-16T11:50:23;23.30;;;6.40;;
68509;SDS011;55512;50.102;19.958;2023-05-16T11:52:50;12.70;;;5.30;;
68509;SDS011;55512;50.102;19.958;2023-05-16T11:55:19;10.70;;;5.20;;
68509;SDS011;55512;50.102;19.958;2023-05-16T11:57:48;11.40;;;5.70;;
68509;SDS011;55512;50.102;19.958;2023-05-16T12:00:17;8.80;;;5.50;;
68509;SDS011;55512;50.102;19.958;2023-05-16T12:02:49;32.80;;;8.70;;
68509;SDS011;55512;50.102;19.958;2023-05-16T12:05:16;23.60;;;7.90;;
68509;SDS011;55512;50.102;19.958;2023-05-16T12:07:43;14.30;;;6.00;;
68509;SDS011;55512;50.102;19.958;2023-05-16T12:10:12;9.30;;;5.80;;
68509;SDS011;55512;50.102;19.958;2023-05-16T12:12:44;10.50;;;6.10;;
68509;SDS011;55512;50.102;19.958;2023-05-16T12:15:12;14.20;;;6.80;;
68509;SDS011;55512;50.102;19.958;2023-05-16T12:17:39;14.80;;;7.10;;
68509;SDS011;55512;50.102;19.958;2023-05-16T12:20:08;14.30;;;6.40;;
68509;SDS011;55512;50.102;19.958;2023-05-16T12:22:42;12.30;;;5.80;;
68509;SDS011;55512;50.102;19.958;2023-05-16T12:25:27;12.60;;;6.30;;
68509;SDS011;55512;50.102;19.958;2023-05-16T12:27:57;9.30;;;6.50;;
68509;SDS011;55512;50.102;19.958;2023-05-16T12:30:25;11.50;;;6.30;;
68509;SDS011;55512;50.102;19.958;2023-05-16T12:32:56;13.00;;;6.60;;
68509;SDS011;55512;50.102;19.958;2023-05-16T12:35:44;11.80;;;6.20;;
68509;SDS011;55512;50.102;19.958;2023-05-16T12:38:15;12.20;;;6.10;;
68509;SDS011;55512;50.102;19.958;2023-05-16T12:40:42;10.40;;;6.20;;
68509;SDS011;55512;50.102;19.958;2023-05-16T12:43:19;11.10;;;6.60;;
68509;SDS011;55512;50.102;19.958;2023-05-16T12:45:54;13.60;;;6.40;;
68509;SDS011;55512;50.102;19.958;2023-05-16T12:48:22;11.10;;;6.40;;
68509;SDS011;55512;50.102;19.958;2023-05-16T12:50:54;9.80;;;5.50;;
68509;SDS011;55512;50.102;19.958;2023-05-16T12:53:19;12.20;;;5.80;;
68509;SDS011;55512;50.102;19.958;2023-05-16T12:55:45;11.30;;;6.50;;
68509;SDS011;55512;50.102;19.958;2023-05-16T12:58:11;12.80;;;6.10;;
68509;SDS011;55512;50.102;19.958;2023-05-16T13:00:37;13.80;;;6.20;;
68509;SDS011;55512;50.102;19.958;2023-05-16T13:03:04;13.80;;;5.70;;
68509;SDS011;55512;50.102;19.958;2023-05-16T13:05:31;10.60;;;5.30;;
68509;SDS011;55512;50.102;19.958;2023-05-16T13:07:57;9.80;;;5.20;;
68509;SDS011;55512;50.102;19.958;2023-05-16T13:10:22;10.10;;;5.50;;
68509;SDS011;55512;50.102;19.958;2023-05-16T13:12:50;10.50;;;5.20;;
68509;SDS011;55512;50.102;19.958;2023-05-16T13:15:15;11.40;;;5.20;;
68509;SDS011;55512;50.102;19.958;2023-05-16T13:17:42;11.90;;;5.20;;
68509;SDS011;55512;50.102;19.958;2023-05-16T13:20:09;16.30;;;6.30;;
68509;SDS011;55512;50.102;19.958;2023-05-16T13:22:41;9.50;;;5.10;;
68509;SDS011;55512;50.102;19.958;2023-05-16T13:25:08;9.80;;;5.40;;
68509;SDS011;55512;50.102;19.958;2023-05-16T13:27:35;15.40;;;6.90;;
68509;SDS011;55512;50.102;19.958;2023-05-16T13:30:01;14.70;;;5.90;;
68509;SDS011;55512;50.102;19.958;2023-05-16T13:32:28;8.80;;;5.20;;
68509;SDS011;55512;50.102;19.958;2023-05-16T13:34:54;8.20;;;5.30;;
68509;SDS011;55512;50.102;19.958;2023-05-16T13:37:20;16.10;;;6.30;;
68509;SDS011;55512;50.102;19.958;2023-05-16T13:39:45;12.90;;;5.10;;
68509;SDS011;55512;50.102;19.958;2023-05-16T13:42:11;9.90;;;5.50;;
68509;SDS011;55512;50.102;19.958;2023-05-16T13:44:36;15.20;;;6.20;;
68509;SDS011;55512;50.102;19.958;2023-05-16T13:47:02;8.70;;;5.60;;
68509;SDS011;55512;50.102;19.958;2023-05-16T13:49:28;9.80;;;6.10;;
68509;SDS011;55512;50.102;19.958;2023-05-16T13:51:54;9.20;;;6.30;;
68509;SDS011;55512;50.102;19.958;2023-05-16T13:54:19;9.10;;;6.60;;
68509;SDS011;55512;50.102;19.958;2023-05-16T13:56:47;8.60;;;6.30;;
68509;SDS011;55512;50.102;19.958;2023-05-16T13:59:12;10.00;;;6.80;;
68509;SDS011;55512;50.102;19.958;2023-05-16T14:01:38;10.00;;;6.90;;
68509;SDS011;55512;50.102;19.958;2023-05-16T14:04:04;8.80;;;6.50;;
68509;SDS011;55512;50.102;19.958;2023-05-16T14:06:30;10.10;;;7.10;;
68509;SDS011;55512;50.102;19.958;2023-05-16T14:09:03;11.00;;;7.00;;
68509;SDS011;55512;50.102;19.958;2023-05-16T14:11:29;9.50;;;6.60;;
68509;SDS011;55512;50.102;19.958;2023-05-16T14:13:56;9.60;;;6.80;;
68509;SDS011;55512;50.102;19.958;2023-05-16T14:16:22;10.30;;;6.70;;
68509;SDS011;55512;50.102;19.958;2023-05-16T14:18:47;9.60;;;6.40;;
68509;SDS011;55512;50.102;19.958;2023-05-16T14:21:13;9.80;;;6.30;;
68509;SDS011;55512;50.102;19.958;2023-05-16T14:23:39;9.30;;;6.60;;
68509;SDS011;55512;50.102;19.958;2023-05-16T14:26:05;8.90;;;6.80;;
68509;SDS011;55512;50.102;19.958;2023-05-16T14:28:30;8.80;;;6.30;;
68509;SDS011;55512;50.102;19.958;2023-05-16T14:31:00;8.20;;;6.20;;
68509;SDS011;55512;50.102;19.958;2023-05-16T14:36:10;8.90;;;6.20;;
68509;SDS011;55512;50.102;19.958;2023-05-16T14:38:36;8.50;;;5.60;;
68509;SDS011;55512;50.102;19.958;2023-05-16T14:41:02;8.30;;;5.80;;
68509;SDS011;55512;50.102;19.958;2023-05-16T14:43:27;8.40;;;5.30;;
68509;SDS011;55512;50.102;19.958;2023-05-16T14:45:53;8.50;;;5.10;;
68509;SDS011;55512;50.102;19.958;2023-05-16T14:48:18;9.20;;;5.50;;
68509;SDS011;55512;50.102;19.958;2023-05-16T14:50:44;8.80;;;5.50;;
68509;SDS011;55512;50.102;19.958;2023-05-16T14:53:10;8.00;;;5.70;;
68509;SDS011;55512;50.102;19.958;2023-05-16T14:55:35;9.20;;;5.60;;
68509;SDS011;55512;50.102;19.958;2023-05-16T14:58:01;8.50;;;6.10;;
68509;SDS011;55512;50.102;19.958;2023-05-16T15:00:27;7.70;;;5.30;;
68509;SDS011;55512;50.102;19.958;2023-05-16T15:02:53;10.00;;;5.20;;